createdAt,value
2019-05-14T00:01:31.989Z,81.04
2019-05-14T00:04:03.625Z,81.04
2019-05-14T00:06:35.633Z,80.46
2019-05-14T00:09:07.740Z,80.71
2019-05-14T00:11:41.856Z,81.55
2019-05-14T00:14:13.113Z,81.65
2019-05-14T00:16:44.959Z,82.11
2019-05-14T00:19:16.594Z,82.77
2019-05-14T00:21:48.743Z,83.34
2019-05-14T00:24:21.708Z,83.47
2019-05-14T00:26:53.696Z,83.32
2019-05-14T00:29:25.383Z,83.15
2019-05-14T00:31:57.563Z,82.74
2019-05-14T00:34:31.551Z,82.99
2019-05-14T00:37:03.157Z,83.11
2019-05-14T00:39:37.143Z,83.44
2019-05-14T00:42:09.142Z,83.81
2019-05-14T00:44:53.757Z,83.91
2019-05-14T00:47:14.380Z,83.82
2019-05-14T00:49:46.144Z,84.27
2019-05-14T00:52:17.704Z,84.52
2019-05-14T00:54:49.490Z,84.56
2019-05-14T00:57:23.668Z,84.22
2019-05-14T00:59:55.145Z,84.21
2019-05-14T01:02:27.140Z,84.29
2019-05-14T01:04:58.970Z,84.32
2019-05-14T01:07:32.004Z,84.48
2019-05-14T01:10:03.873Z,84.23
2019-05-14T01:12:35.484Z,84.11
2019-05-14T01:15:10.799Z,84.12
2019-05-14T01:17:42.152Z,84.45
2019-05-14T01:20:14.143Z,84.10
2019-05-14T01:22:45.773Z,84.28
2019-05-14T01:25:17.396Z,84.82
2019-05-14T01:27:51.635Z,85.59
2019-05-14T01:30:22.782Z,86.00
2019-05-14T01:32:54.178Z,85.61
2019-05-14T01:35:26.212Z,85.93
2019-05-14T01:37:58.238Z,86.00
2019-05-14T01:40:31.504Z,85.31
2019-05-14T01:43:03.562Z,85.00
2019-05-14T01:45:35.229Z,85.07
2019-05-14T01:48:07.268Z,85.35
2019-05-14T01:50:41.415Z,85.33
2019-05-14T01:53:12.711Z,84.56
2019-05-14T01:55:44.492Z,84.48
2019-05-14T01:58:16.075Z,84.44
2019-05-14T02:00:48.114Z,84.55
2019-05-14T02:03:21.450Z,84.71
2019-05-14T02:05:53.199Z,85.03
2019-05-14T02:08:24.886Z,85.36
2019-05-14T02:10:56.382Z,85.34
2019-05-14T02:13:32.300Z,84.98
2019-05-14T02:16:07.198Z,84.64
2019-05-14T02:18:39.056Z,84.95
2019-05-14T02:21:11.804Z,84.71
2019-05-14T02:23:44.110Z,84.38
2019-05-14T02:26:16.152Z,84.74
2019-05-14T02:28:48.139Z,84.06
2019-05-14T02:31:20.418Z,84.07
2019-05-14T02:33:52.660Z,84.33
2019-05-14T02:36:24.825Z,84.94
2019-05-14T02:39:00.114Z,84.79
2019-05-14T02:41:30.338Z,85.00
2019-05-14T02:44:02.334Z,85.04
2019-05-14T02:46:34.379Z,85.65
2019-05-14T02:49:06.448Z,85.58
2019-05-14T02:51:39.164Z,85.80
2019-05-14T02:54:11.323Z,86.01
2019-05-14T02:56:49.470Z,86.25
2019-05-14T02:59:19.614Z,85.75
2019-05-14T03:01:51.127Z,85.39
2019-05-14T03:04:23.102Z,85.47
2019-05-14T03:06:59.218Z,85.81
2019-05-14T03:09:31.569Z,86.05
2019-05-14T03:12:03.543Z,86.31
2019-05-14T03:14:39.291Z,86.86
2019-05-14T03:17:10.668Z,87.10
2019-05-14T03:19:43.789Z,86.80
2019-05-14T03:22:27.587Z,86.40
2019-05-14T03:24:52.330Z,86.29
2019-05-14T03:27:24.412Z,86.15
2019-05-14T03:29:58.648Z,85.87
2019-05-14T03:32:41.710Z,86.49
2019-05-14T03:35:13.699Z,86.01
2019-05-14T03:37:44.108Z,85.79
2019-05-14T03:40:19.235Z,86.13
2019-05-14T03:42:49.709Z,86.48
2019-05-14T03:45:24.618Z,86.81
2019-05-14T03:47:59.176Z,87.04
2019-05-14T03:50:33.929Z,86.63
2019-05-14T03:53:05.580Z,86.19
2019-05-14T03:55:46.337Z,86.14
2019-05-14T03:58:30.059Z,85.54
2019-05-14T04:01:02.534Z,85.28
2019-05-14T04:03:39.947Z,85.38
2019-05-14T04:06:31.289Z,85.58
2019-05-14T04:09:10.993Z,85.76
2019-05-14T04:12:03.416Z,85.69
2019-05-14T04:14:39.662Z,86.41
2019-05-14T04:17:15.799Z,86.28
2019-05-14T04:19:49.945Z,86.39
2019-05-14T04:22:24.067Z,86.52
2019-05-14T04:24:59.402Z,86.67
2019-05-14T04:27:32.950Z,87.22
2019-05-14T04:30:09.275Z,87.85
2019-05-14T04:32:41.746Z,87.75
2019-05-14T04:35:13.721Z,87.87
2019-05-14T04:37:49.349Z,87.74
2019-05-14T04:40:19.237Z,87.83
2019-05-14T04:42:50.745Z,87.87
2019-05-14T04:45:22.907Z,87.56
2019-05-14T04:47:54.300Z,87.86
2019-05-14T04:50:29.455Z,88.05
2019-05-14T04:52:59.996Z,88.35
2019-05-14T04:55:32.112Z,87.82
2019-05-14T04:58:03.669Z,88.04
2019-05-14T05:00:35.062Z,88.27
2019-05-14T05:03:11.697Z,88.71
2019-05-14T05:05:42.199Z,88.94
2019-05-14T05:08:14.627Z,88.62
2019-05-14T05:10:49.464Z,88.58
2019-05-14T05:13:24.282Z,88.43
2019-05-14T05:15:59.490Z,88.39
2019-05-14T05:18:33.853Z,88.44
2019-05-14T05:21:11.548Z,88.23
2019-05-14T05:23:49.286Z,88.14
2019-05-14T05:26:28.545Z,88.39
2019-05-14T05:29:06.335Z,88.39
2019-05-14T05:31:34.551Z,88.26
2019-05-14T05:34:09.440Z,88.16
2019-05-14T05:36:42.235Z,88.38
2019-05-14T05:39:13.829Z,88.20
2019-05-14T05:41:49.012Z,88.55
2019-05-14T05:44:20.817Z,88.44
2019-05-14T05:46:52.544Z,87.57
2019-05-14T05:49:24.351Z,87.40
2019-05-14T05:51:59.226Z,87.34
2019-05-14T05:54:33.330Z,85.45
2019-05-14T05:57:09.246Z,84.92
2019-05-14T06:03:14.168Z,85.53
2019-05-14T06:05:29.551Z,84.51
2019-05-14T06:08:28.125Z,83.93
2019-05-14T06:10:58.902Z,82.76
2019-05-14T06:13:36.082Z,82.26
2019-05-14T06:16:10.030Z,83.40
2019-05-14T06:18:42.979Z,83.10
2019-05-14T06:21:22.005Z,83.50
2019-05-14T06:24:08.957Z,83.05
2019-05-14T06:26:58.655Z,82.54
2019-05-14T06:29:38.128Z,81.58
2019-05-14T06:32:09.826Z,82.35
2019-05-14T06:34:41.688Z,81.64
2019-05-14T06:37:13.637Z,81.50
2019-05-14T06:39:45.225Z,81.38
2019-05-14T06:42:19.267Z,80.89
2019-05-14T06:44:50.876Z,80.79
2019-05-14T06:47:25.120Z,80.96
2019-05-14T06:49:59.251Z,80.35
2019-05-14T06:52:30.462Z,78.44
2019-05-14T06:55:02.237Z,79.05
2019-05-14T06:57:33.927Z,77.92
2019-05-14T07:00:08.293Z,78.71
2019-05-14T07:02:43.744Z,77.39
2019-05-14T07:05:13.101Z,76.62
2019-05-14T07:07:49.314Z,76.10
2019-05-14T07:10:20.269Z,76.77
2019-05-14T07:12:59.161Z,76.56
2019-05-14T07:15:31.192Z,74.95
2019-05-14T07:18:13.162Z,74.37
2019-05-14T07:20:48.620Z,74.85
2019-05-14T07:23:21.544Z,75.04
2019-05-14T07:25:53.907Z,75.83
2019-05-14T07:28:28.965Z,77.22
2019-05-14T07:30:59.866Z,77.74
2019-05-14T07:33:35.215Z,77.85
2019-05-14T07:36:14.713Z,77.15
2019-05-14T07:38:51.870Z,77.39
2019-05-14T07:41:28.475Z,78.12
2019-05-14T07:44:03.093Z,78.76
2019-05-14T07:46:34.600Z,79.50
2019-05-14T07:49:11.815Z,78.70
2019-05-14T07:52:06.144Z,78.90
2019-05-14T07:54:39.113Z,79.29
2019-05-14T07:57:11.459Z,78.86
2019-05-14T07:59:44.829Z,78.85
2019-05-14T08:02:19.375Z,79.61
2019-05-14T08:04:53.243Z,79.04
2019-05-14T08:07:24.739Z,78.74
2019-05-14T08:09:58.378Z,78.01
2019-05-14T08:12:29.988Z,76.90
2019-05-14T08:15:15.273Z,74.90
2019-05-14T08:17:38.753Z,74.60
2019-05-14T08:20:18.340Z,74.75
2019-05-14T08:22:50.872Z,75.53
2019-05-14T08:25:22.812Z,76.75
2019-05-14T08:27:54.367Z,76.59
2019-05-14T08:30:28.326Z,77.42
2019-05-14T08:33:00.138Z,77.36
2019-05-14T08:35:34.075Z,77.11
2019-05-14T08:38:11.377Z,77.36
2019-05-14T08:40:43.126Z,77.80
2019-05-14T08:43:14.636Z,76.57
2019-05-14T08:45:48.459Z,76.40
2019-05-14T08:48:21.744Z,76.55
2019-05-14T08:50:53.597Z,75.66
2019-05-14T08:53:25.328Z,74.69
2019-05-14T08:55:58.936Z,75.55
2019-05-14T08:58:31.171Z,75.73
2019-05-14T09:01:02.619Z,76.64
2019-05-14T09:03:34.192Z,76.42
2019-05-14T09:06:08.923Z,76.95
2019-05-14T09:08:39.845Z,77.86
2019-05-14T09:11:11.818Z,77.03
2019-05-14T09:13:43.575Z,77.28
2019-05-14T09:16:15.579Z,76.89
2019-05-14T09:18:49.091Z,76.58
2019-05-14T09:21:29.565Z,77.02
2019-05-14T09:24:00.069Z,78.00
2019-05-14T09:26:31.817Z,78.78
2019-05-14T09:29:18.211Z,78.67
2019-05-14T09:31:39.115Z,77.88
2019-05-14T09:34:10.591Z,78.92
2019-05-14T09:36:42.476Z,80.11
2019-05-14T09:39:14.219Z,80.02
2019-05-14T09:41:48.051Z,79.95
2019-05-14T09:44:19.195Z,80.21
2019-05-14T09:46:53.311Z,80.61
2019-05-14T09:49:28.393Z,82.04
2019-05-14T09:52:00.545Z,82.34
2019-05-14T09:54:32.222Z,82.59
2019-05-14T09:57:04.224Z,82.82
2019-05-14T09:59:35.731Z,82.95
2019-05-14T10:02:09.219Z,83.02
2019-05-14T10:04:41.389Z,83.74
2019-05-14T10:07:15.789Z,84.29
2019-05-14T10:09:51.798Z,83.36
2019-05-14T10:12:23.635Z,82.33
2019-05-14T10:14:55.645Z,83.04
2019-05-14T10:17:28.962Z,81.50
2019-05-14T10:20:01.961Z,81.45
2019-05-14T10:22:34.127Z,81.02
2019-05-14T10:25:09.093Z,81.70
2019-05-14T10:27:41.015Z,81.34
2019-05-14T10:30:14.668Z,82.38
2019-05-14T10:32:49.030Z,81.64
2019-05-14T10:35:20.195Z,81.22
2019-05-14T10:37:54.901Z,80.92
2019-05-14T10:40:29.093Z,82.04
2019-05-14T10:43:00.067Z,82.53
2019-05-14T10:45:32.414Z,82.15
2019-05-14T10:48:04.553Z,82.19
2019-05-14T10:50:45.544Z,81.82
2019-05-14T10:53:09.654Z,81.88
2019-05-14T10:55:41.775Z,82.25
2019-05-14T10:58:13.451Z,82.89
2019-05-14T11:00:45.449Z,82.64
2019-05-14T11:03:18.607Z,83.25
2019-05-14T11:05:50.400Z,84.46
2019-05-14T11:08:22.525Z,84.03
2019-05-14T11:10:54.432Z,84.52
2019-05-14T11:13:28.947Z,83.85
2019-05-14T11:15:59.873Z,84.95
2019-05-14T11:18:31.832Z,84.08
2019-05-14T11:21:18.544Z,84.16
2019-05-14T11:23:38.650Z,82.95
2019-05-14T11:26:10.402Z,83.53
2019-05-14T11:28:42.794Z,83.17
2019-05-14T11:31:15.223Z,83.79
2019-05-14T11:33:49.570Z,84.22
2019-05-14T11:36:21.399Z,84.14
2019-05-14T11:38:53.100Z,84.31
2019-05-14T11:41:24.978Z,84.27
2019-05-14T11:43:59.394Z,84.71
2019-05-14T11:46:43.591Z,84.36
2019-05-14T11:49:08.872Z,84.54
2019-05-14T11:51:59.294Z,83.99
2019-05-14T11:54:14.687Z,83.57
2019-05-14T11:56:51.430Z,83.31
2019-05-14T11:59:20.598Z,82.97
2019-05-14T12:01:54.960Z,83.06
2019-05-14T12:04:28.393Z,83.41
2019-05-14T12:07:02.814Z,82.93
2019-05-14T12:09:35.825Z,81.88
2019-05-14T12:12:12.353Z,81.19
2019-05-14T12:14:41.100Z,81.40
2019-05-14T12:17:13.085Z,80.86
2019-05-14T12:19:44.719Z,79.79
2019-05-14T12:22:18.982Z,79.54
2019-05-14T12:24:50.500Z,80.43
2019-05-14T12:27:24.376Z,80.95
2019-05-14T12:29:59.659Z,80.31
2019-05-14T12:32:30.332Z,80.57
2019-05-14T12:35:02.029Z,80.98
2019-05-14T12:37:34.057Z,80.85
2019-05-14T12:40:08.807Z,80.19
2019-05-14T12:42:40.505Z,81.38
2019-05-14T12:45:12.308Z,81.78
2019-05-14T12:47:44.281Z,80.63
2019-05-14T12:50:16.719Z,80.42
2019-05-14T12:52:48.745Z,79.69
2019-05-14T12:55:20.440Z,79.31
2019-05-14T12:57:51.987Z,79.65
2019-05-14T13:00:24.165Z,80.24
2019-05-14T13:02:58.276Z,80.42
2019-05-14T13:05:29.512Z,79.54
2019-05-14T13:08:01.164Z,78.57
2019-05-14T13:10:33.812Z,78.59
2019-05-14T13:13:08.237Z,78.43
2019-05-14T13:15:39.531Z,78.81
2019-05-14T13:18:10.983Z,78.38
2019-05-14T13:20:42.720Z,78.36
2019-05-14T13:23:18.211Z,78.67
2019-05-14T13:25:50.368Z,78.97
2019-05-14T13:28:21.974Z,79.07
2019-05-14T13:30:53.400Z,80.07
2019-05-14T13:33:25.133Z,80.58
2019-05-14T13:35:59.404Z,80.37
2019-05-14T13:38:39.321Z,80.88
2019-05-14T13:41:08.661Z,80.57
2019-05-14T13:43:40.740Z,81.47
2019-05-14T13:46:14.960Z,80.98
2019-05-14T13:48:45.841Z,81.03
2019-05-14T13:51:19.538Z,80.71
2019-05-14T13:53:50.940Z,80.76
2019-05-14T13:56:22.959Z,81.23
2019-05-14T13:58:58.912Z,81.55
2019-05-14T14:01:30.064Z,81.92
2019-05-14T14:04:10.812Z,82.07
2019-05-14T14:06:35.003Z,81.87
2019-05-14T14:09:12.326Z,81.40
2019-05-14T14:11:40.799Z,81.02
2019-05-14T14:14:12.797Z,80.56
2019-05-14T14:16:44.745Z,80.44
2019-05-14T14:19:18.602Z,80.61
2019-05-14T14:21:49.954Z,80.29
2019-05-14T14:24:21.431Z,80.73
2019-05-14T14:27:00.791Z,80.72
2019-05-14T14:29:32.640Z,80.76
2019-05-14T14:32:04.553Z,80.41
2019-05-14T14:34:40.993Z,80.73
2019-05-14T14:37:10.219Z,81.95
2019-05-14T14:39:42.045Z,82.33
2019-05-14T14:42:19.592Z,82.18
2019-05-14T14:44:51.694Z,82.97
2019-05-14T14:47:23.231Z,83.44
2019-05-14T14:49:54.883Z,83.65
2019-05-14T14:52:29.099Z,84.31
2019-05-14T14:54:59.963Z,83.71
2019-05-14T14:57:31.577Z,82.97
2019-05-14T15:00:03.748Z,82.79
2019-05-14T15:02:52.925Z,83.07
2019-05-14T15:05:39.013Z,83.28
2019-05-14T15:08:10.608Z,83.16
2019-05-14T15:10:42.545Z,83.14
2019-05-14T15:13:14.276Z,82.78
2019-05-14T15:15:49.235Z,82.47
2019-05-14T15:18:19.426Z,82.21
2019-05-14T15:20:51.050Z,82.10
2019-05-14T15:23:23.163Z,81.83
2019-05-14T15:25:58.912Z,82.09
2019-05-14T15:28:38.721Z,82.14
2019-05-14T15:31:11.449Z,82.26
2019-05-14T15:33:43.334Z,83.41
2019-05-14T15:36:15.056Z,83.22
2019-05-14T15:38:48.639Z,82.99
2019-05-14T15:41:20.677Z,83.06
2019-05-14T15:43:52.454Z,83.85
2019-05-14T15:46:24.194Z,83.77
2019-05-14T15:48:59.308Z,84.01
2019-05-14T15:51:29.408Z,84.48
2019-05-14T15:54:16.074Z,83.82
2019-05-14T15:56:35.010Z,84.05
2019-05-14T15:59:10.208Z,84.23
2019-05-14T16:01:41.802Z,84.51
2019-05-14T16:04:14.868Z,85.17
2019-05-14T16:06:48.882Z,85.10
2019-05-14T16:09:23.905Z,84.98
2019-05-14T16:11:55.806Z,85.47
2019-05-14T16:14:33.437Z,85.10
2019-05-14T16:17:11.535Z,85.19
2019-05-14T16:19:43.591Z,85.25
2019-05-14T16:22:21.057Z,85.07
2019-05-14T16:24:56.936Z,85.21
2019-05-14T16:27:26.231Z,85.80
2019-05-14T16:29:59.323Z,86.96
2019-05-14T16:32:32.834Z,87.04
2019-05-14T16:35:22.619Z,86.93
2019-05-14T16:38:02.253Z,87.06
2019-05-14T16:40:36.186Z,87.39
2019-05-14T16:43:09.290Z,87.27
2019-05-14T16:45:49.058Z,87.88
2019-05-14T16:48:20.451Z,88.33
2019-05-14T16:57:31.398Z,89.68
2019-05-14T17:00:18.504Z,89.39
2019-05-14T17:02:50.954Z,89.07
2019-05-14T17:05:30.267Z,89.34
2019-05-14T17:08:19.282Z,90.28
2019-05-14T17:10:54.769Z,90.29
2019-05-14T17:13:28.551Z,90.48
2019-05-14T17:16:15.159Z,90.49
2019-05-14T17:18:55.105Z,90.48
2019-05-14T17:21:28.347Z,90.38
2019-05-14T17:24:00.694Z,90.41
2019-05-14T17:26:32.106Z,90.47
2019-05-14T17:29:04.100Z,90.16
2019-05-14T17:31:38.849Z,90.12
2019-05-14T17:34:09.383Z,90.16
2019-05-14T17:36:41.420Z,89.90
2019-05-14T17:39:13.273Z,89.62
2019-05-14T17:41:45.450Z,89.53
2019-05-14T17:44:19.042Z,89.36
2019-05-14T17:46:50.465Z,89.40
2019-05-14T17:49:24.259Z,89.83
2019-05-14T17:51:57.979Z,89.94
2019-05-14T17:54:30.984Z,89.30
2019-05-14T17:57:03.221Z,88.38
2019-05-14T17:59:34.895Z,88.15
2019-05-14T18:02:08.671Z,87.36
2019-05-14T18:04:40.408Z,86.98
2019-05-14T18:07:12.230Z,86.47
2019-05-14T18:09:44.360Z,86.47
2019-05-14T18:12:20.760Z,86.74
2019-05-14T18:15:21.335Z,86.85
2019-05-14T18:17:53.077Z,85.93
2019-05-14T18:20:24.995Z,85.24
2019-05-14T18:22:58.319Z,85.67
2019-05-14T18:25:33.503Z,86.35
2019-05-14T18:28:25.550Z,85.88
2019-05-14T18:30:58.589Z,86.27
2019-05-14T18:33:32.688Z,86.90
2019-05-14T18:36:08.889Z,87.64
2019-05-14T18:38:39.225Z,88.57
2019-05-14T18:41:10.820Z,88.30
2019-05-14T18:43:46.587Z,89.07
2019-05-14T18:46:21.742Z,89.51
2019-05-14T18:48:53.510Z,89.40
2019-05-14T18:51:28.760Z,89.52
2019-05-14T18:54:00.702Z,89.45
2019-05-14T18:56:34.336Z,89.53
2019-05-14T18:59:08.753Z,89.75
2019-05-14T19:01:40.026Z,90.16
2019-05-14T19:04:12.732Z,90.48
2019-05-14T19:06:44.727Z,90.48
2019-05-14T19:09:18.634Z,90.19
2019-05-14T19:11:51.530Z,90.22
2019-05-14T19:14:23.075Z,90.66
2019-05-14T19:16:55.104Z,90.30
2019-05-14T19:19:26.704Z,90.45
2019-05-14T19:21:58.666Z,90.25
2019-05-14T19:24:30.403Z,90.13
2019-05-14T19:27:01.922Z,90.20
2019-05-14T19:29:33.677Z,89.91
2019-05-14T19:32:08.248Z,89.73
2019-05-14T19:34:38.649Z,89.65
2019-05-14T19:37:10.293Z,90.26
2019-05-14T19:39:42.125Z,90.66
2019-05-14T19:42:14.427Z,90.52
2019-05-14T19:44:48.297Z,90.48
2019-05-14T19:47:19.883Z,90.54
2019-05-14T19:49:52.349Z,90.10
2019-05-14T19:52:24.101Z,90.02
2019-05-14T19:54:56.141Z,90.00
2019-05-14T19:57:29.088Z,89.93
2019-05-14T20:00:01.146Z,89.86
2019-05-14T20:02:32.711Z,90.48
2019-05-14T20:05:05.669Z,89.92
2019-05-14T20:07:39.062Z,90.24
2019-05-14T20:10:11.447Z,90.26
2019-05-14T20:12:43.082Z,90.44
2019-05-14T20:15:15.286Z,90.63
2019-05-14T20:17:49.065Z,90.83
2019-05-14T20:20:20.797Z,90.68
2019-05-14T20:22:52.872Z,90.47
2019-05-14T20:25:24.605Z,90.32
2019-05-14T20:27:58.582Z,90.22
2019-05-14T20:30:29.970Z,90.09
2019-05-14T20:33:05.268Z,89.69
2019-05-14T20:35:37.271Z,89.75
2019-05-14T20:38:09.228Z,89.46
2019-05-14T20:40:41.314Z,89.62
2019-05-14T20:43:13.042Z,89.82
2019-05-14T20:45:45.553Z,89.86
2019-05-14T20:48:18.810Z,90.04
2019-05-14T20:50:50.837Z,90.13
2019-05-14T20:53:22.599Z,90.17
2019-05-14T20:55:54.930Z,90.01
2019-05-14T20:58:27.909Z,89.92
2019-05-14T21:01:00.042Z,89.71
2019-05-14T21:03:31.927Z,89.78
2019-05-14T21:06:03.439Z,90.01
2019-05-14T21:08:35.001Z,90.41
2019-05-14T21:11:08.271Z,90.79
2019-05-14T21:13:40.128Z,90.83
2019-05-14T21:16:11.918Z,91.13
2019-05-14T21:18:44.852Z,91.12
2019-05-14T21:21:18.538Z,90.99
2019-05-14T21:23:50.954Z,90.88
2019-05-14T21:26:22.728Z,91.35
2019-05-14T21:28:54.717Z,91.29
2019-05-14T21:31:28.383Z,91.23
2019-05-14T21:34:00.981Z,91.21
2019-05-14T21:36:33.037Z,91.28
2019-05-14T21:39:07.943Z,91.41
2019-05-14T21:41:39.799Z,91.64
2019-05-14T21:44:11.363Z,91.84
2019-05-14T21:46:43.324Z,91.87
2019-05-14T21:49:15.528Z,91.53
2019-05-14T21:51:48.316Z,91.57
2019-05-14T21:54:20.555Z,91.71
2019-05-14T21:56:52.454Z,91.42
2019-05-14T21:59:24.336Z,91.62
2019-05-14T22:01:58.874Z,91.40
2019-05-14T22:04:30.349Z,90.97
2019-05-14T22:07:02.017Z,91.05
2019-05-14T22:14:43.662Z,91.45
2019-05-14T22:17:15.580Z,91.14
2019-05-14T22:19:49.088Z,91.34
2019-05-14T22:22:21.598Z,91.35
2019-05-14T22:24:53.190Z,90.64
2019-05-14T22:27:25.368Z,90.77
2019-05-14T22:29:58.657Z,90.25
2019-05-14T22:32:30.933Z,90.27
2019-05-14T22:35:02.654Z,90.80
2019-05-14T22:37:34.310Z,91.26
2019-05-14T22:40:06.863Z,91.68
2019-05-14T22:42:39.424Z,92.14
2019-05-14T22:45:11.297Z,91.86
2019-05-14T22:47:43.286Z,92.18
2019-05-14T22:50:14.993Z,91.96
2019-05-14T22:52:48.669Z,91.96
2019-05-14T22:55:20.896Z,91.51
2019-05-14T22:57:54.211Z,91.60
2019-05-14T23:00:28.634Z,91.73
2019-05-14T23:03:00.582Z,92.08
2019-05-14T23:05:32.918Z,92.23
2019-05-14T23:08:05.283Z,92.75
2019-05-14T23:10:38.909Z,92.72
2019-05-14T23:13:10.337Z,92.84
2019-05-14T23:15:42.454Z,92.66
2019-05-14T23:18:14.614Z,92.04
2019-05-14T23:20:49.143Z,92.17
2019-05-14T23:23:21.214Z,92.06
2019-05-14T23:25:54.713Z,92.11
2019-05-14T23:28:39.529Z,91.70
2019-05-14T23:30:59.986Z,91.46
2019-05-14T23:33:32.244Z,91.23
2019-05-14T23:36:04.264Z,90.95
2019-05-14T23:38:38.435Z,90.61
2019-05-14T23:41:09.449Z,90.25
2019-05-14T23:43:41.065Z,89.88
2019-05-14T23:46:13.090Z,89.69
2019-05-14T23:48:45.434Z,89.47
2019-05-14T23:51:18.210Z,89.04
2019-05-14T23:53:50.376Z,88.90
2019-05-14T23:56:21.932Z,88.77
2019-05-14T23:58:57.889Z,88.69
